createdAt,value
2023-01-19T00:00:44.470Z,80.22
2023-01-19T00:02:48.226Z,79.91
2023-01-19T00:04:51.809Z,80.56
2023-01-19T00:06:55.118Z,80.35
2023-01-19T00:08:58.448Z,80.69
2023-01-19T00:11:02.041Z,80.78
2023-01-19T00:13:06.720Z,80.91
2023-01-19T00:15:11.042Z,80.81
2023-01-19T00:17:14.647Z,81.35
2023-01-19T00:19:18.045Z,81.41
2023-01-19T00:21:22.592Z,81.89
2023-01-19T00:23:25.978Z,81.39
2023-01-19T00:25:29.564Z,81.88
2023-01-19T00:27:35.002Z,82.08
2023-01-19T00:29:39.693Z,82.38
2023-01-19T00:31:43.169Z,82.81
2023-01-19T00:33:48.801Z,82.75
2023-01-19T00:35:52.609Z,82.83
2023-01-19T00:37:57.097Z,83.29
2023-01-19T00:40:00.442Z,83.70
2023-01-19T00:42:21.446Z,82.34
2023-01-19T00:44:24.819Z,82.47
2023-01-19T00:46:29.494Z,82.18
2023-01-19T00:48:32.817Z,82.67
2023-01-19T00:50:36.458Z,82.27
2023-01-19T00:52:40.481Z,81.63
2023-01-19T00:54:43.839Z,81.85
2023-01-19T00:56:47.277Z,82.01
2023-01-19T00:58:50.913Z,81.68
2023-01-19T01:00:57.435Z,81.02
2023-01-19T01:03:02.643Z,81.45
2023-01-19T01:05:06.976Z,81.06
2023-01-19T01:07:10.322Z,81.14
2023-01-19T01:09:13.812Z,81.46
2023-01-19T01:11:17.198Z,81.46
2023-01-19T01:13:23.636Z,81.38
2023-01-19T01:15:29.868Z,81.93
2023-01-19T01:17:33.235Z,81.82
2023-01-19T01:19:38.420Z,81.54
2023-01-19T01:21:41.855Z,81.37
2023-01-19T01:23:45.217Z,81.25
2023-01-19T01:25:48.515Z,81.54
2023-01-19T01:27:52.067Z,81.42
2023-01-19T01:29:55.407Z,80.95
2023-01-19T01:31:58.761Z,80.76
2023-01-19T01:34:02.446Z,81.68
2023-01-19T01:36:09.029Z,81.63
2023-01-19T01:38:12.787Z,81.62
2023-01-19T01:40:18.690Z,81.59
2023-01-19T01:42:27.760Z,81.91
2023-01-19T01:44:50.457Z,82.24
2023-01-19T01:46:54.111Z,82.32
2023-01-19T01:49:05.522Z,82.51
2023-01-19T01:51:27.324Z,81.99
2023-01-19T01:53:33.525Z,81.72
2023-01-19T01:55:39.027Z,82.77
2023-01-19T01:57:46.525Z,82.67
2023-01-19T01:59:51.560Z,82.47
2023-01-19T02:02:14.520Z,82.00
2023-01-19T02:04:19.910Z,81.24
2023-01-19T02:06:25.111Z,81.32
2023-01-19T02:08:52.966Z,81.34
2023-01-19T02:11:14.500Z,81.04
2023-01-19T02:13:21.454Z,81.01
2023-01-19T02:15:24.698Z,81.02
2023-01-19T02:17:28.218Z,81.36
2023-01-19T02:19:40.393Z,81.05
2023-01-19T02:21:53.447Z,80.78
2023-01-19T02:24:00.342Z,80.52
2023-01-19T02:26:04.702Z,80.75
2023-01-19T02:28:08.428Z,81.33
2023-01-19T02:30:12.711Z,80.94
2023-01-19T02:32:16.110Z,80.93
2023-01-19T02:34:22.649Z,81.19
2023-01-19T02:36:29.347Z,80.65
2023-01-19T02:38:35.063Z,80.48
2023-01-19T02:40:42.795Z,80.39
2023-01-19T02:42:49.360Z,80.44
2023-01-19T02:44:55.729Z,80.80
2023-01-19T02:46:59.081Z,80.45
2023-01-19T02:49:02.675Z,81.10
2023-01-19T02:51:15.506Z,80.43
2023-01-19T02:53:48.591Z,81.03
2023-01-19T02:55:58.113Z,80.78
2023-01-19T02:58:08.392Z,80.92
2023-01-19T03:00:23.283Z,80.75
2023-01-19T03:02:34.614Z,81.54
2023-01-19T03:04:51.611Z,81.64
2023-01-19T03:07:03.697Z,81.72
2023-01-19T03:09:15.471Z,81.05
2023-01-19T03:11:20.629Z,81.13
2023-01-19T03:13:31.878Z,81.51
2023-01-19T03:15:41.851Z,81.35
2023-01-19T03:17:49.696Z,81.68
2023-01-19T03:19:55.059Z,82.18
2023-01-19T03:22:00.989Z,82.50
2023-01-19T03:24:07.752Z,82.95
2023-01-19T03:26:15.896Z,83.48
2023-01-19T03:28:21.867Z,83.09
2023-01-19T03:30:28.862Z,83.19
2023-01-19T03:32:37.199Z,83.08
2023-01-19T03:34:42.955Z,83.61
2023-01-19T03:36:51.696Z,83.40
2023-01-19T03:38:58.846Z,83.35
2023-01-19T03:41:06.769Z,82.91
2023-01-19T03:43:10.776Z,82.88
2023-01-19T03:45:16.258Z,82.61
2023-01-19T03:47:21.030Z,82.97
2023-01-19T03:49:24.776Z,83.37
2023-01-19T03:51:28.459Z,82.63
2023-01-19T03:53:31.738Z,82.52
2023-01-19T03:55:35.893Z,82.89
2023-01-19T03:57:39.324Z,83.06
2023-01-19T03:59:42.656Z,82.16
2023-01-19T04:01:47.615Z,82.05
2023-01-19T04:03:51.111Z,82.26
2023-01-19T04:05:54.539Z,81.28
2023-01-19T04:07:58.002Z,82.02
2023-01-19T04:10:01.337Z,82.30
2023-01-19T04:12:05.551Z,81.85
2023-01-19T04:14:08.906Z,82.15
2023-01-19T04:16:12.594Z,82.10
2023-01-19T04:18:17.329Z,81.53
2023-01-19T04:20:21.680Z,81.72
2023-01-19T04:22:25.322Z,81.81
2023-01-19T04:24:28.678Z,81.77
2023-01-19T04:26:31.946Z,81.62
2023-01-19T04:28:36.980Z,81.66
2023-01-19T04:30:40.348Z,82.30
2023-01-19T04:32:44.191Z,81.67
2023-01-19T04:34:49.096Z,81.29
2023-01-19T04:36:52.408Z,81.11
2023-01-19T04:38:55.749Z,81.87
2023-01-19T04:40:59.056Z,81.54
2023-01-19T04:43:02.644Z,82.18
2023-01-19T04:45:06.887Z,82.70
2023-01-19T04:47:10.282Z,83.18
2023-01-19T04:49:13.960Z,84.59
2023-01-19T04:51:18.682Z,85.13
2023-01-19T04:53:21.960Z,86.93
2023-01-19T04:55:25.864Z,88.18
2023-01-19T04:57:30.042Z,87.71
2023-01-19T04:59:33.542Z,88.38
2023-01-19T05:01:36.986Z,89.19
2023-01-19T05:03:40.868Z,89.27
2023-01-19T05:05:44.200Z,90.32
2023-01-19T05:07:48.883Z,90.57
2023-01-19T05:09:52.284Z,91.04
2023-01-19T05:11:55.563Z,90.62
2023-01-19T05:13:58.914Z,90.35
2023-01-19T05:16:02.431Z,90.34
2023-01-19T05:18:05.867Z,90.81
2023-01-19T05:20:12.244Z,90.28
2023-01-19T05:22:17.277Z,89.94
2023-01-19T05:24:21.985Z,89.20
2023-01-19T05:26:25.420Z,89.86
2023-01-19T05:28:28.864Z,91.26
2023-01-19T05:30:32.352Z,91.41
2023-01-19T05:32:35.700Z,92.21
2023-01-19T05:34:39.064Z,92.50
2023-01-19T05:36:42.472Z,92.76
2023-01-19T05:38:46.029Z,93.17
2023-01-19T05:40:51.016Z,94.11
2023-01-19T05:42:54.346Z,95.78
2023-01-19T05:44:59.430Z,95.99
2023-01-19T05:47:02.767Z,96.36
2023-01-19T05:49:07.341Z,96.56
2023-01-19T05:51:11.065Z,97.52
2023-01-19T05:53:14.545Z,97.58
2023-01-19T05:55:18.066Z,97.50
2023-01-19T05:57:23.015Z,97.56
2023-01-19T05:59:26.323Z,97.95
2023-01-19T06:01:29.657Z,97.73
2023-01-19T06:03:33.162Z,97.28
2023-01-19T06:05:38.393Z,96.78
2023-01-19T06:07:41.860Z,97.58
2023-01-19T06:09:45.142Z,98.44
2023-01-19T06:11:48.607Z,99.29
2023-01-19T06:13:53.587Z,100.00
2023-01-19T06:16:00.180Z,100.00
2023-01-19T06:18:03.584Z,100.00
2023-01-19T06:20:08.128Z,99.94
2023-01-19T06:22:11.439Z,99.45
2023-01-19T06:24:14.916Z,99.20
2023-01-19T06:26:18.244Z,99.27
2023-01-19T06:28:21.584Z,99.71
2023-01-19T06:30:26.998Z,99.44
2023-01-19T06:32:30.947Z,100.00
2023-01-19T06:34:34.336Z,100.00
2023-01-19T06:36:38.436Z,99.76
2023-01-19T06:38:41.844Z,99.87
2023-01-19T06:40:45.778Z,99.92
2023-01-19T06:42:50.120Z,100.00
2023-01-19T06:44:53.400Z,100.00
2023-01-19T06:47:15.655Z,99.99
2023-01-19T06:49:19.556Z,99.56
2023-01-19T06:51:23.016Z,99.50
2023-01-19T06:53:27.962Z,99.29
2023-01-19T06:55:31.312Z,99.82
2023-01-19T06:57:34.714Z,99.94
2023-01-19T06:59:38.059Z,100.00
2023-01-19T07:01:41.516Z,100.00
2023-01-19T07:03:47.048Z,100.00
2023-01-19T07:05:52.675Z,100.00
2023-01-19T07:07:57.127Z,100.00
2023-01-19T07:10:00.502Z,100.00
2023-01-19T07:12:03.913Z,100.00
2023-01-19T07:14:07.185Z,100.00
2023-01-19T07:16:12.557Z,100.00
2023-01-19T07:18:15.811Z,100.00
2023-01-19T07:20:20.784Z,100.00
2023-01-19T07:22:24.120Z,100.00
2023-01-19T07:24:27.469Z,100.00
2023-01-19T07:26:30.952Z,100.00
2023-01-19T07:28:34.371Z,100.00
2023-01-19T07:30:37.809Z,100.00
2023-01-19T07:32:42.541Z,99.75
2023-01-19T07:34:45.859Z,100.00
2023-01-19T07:36:50.679Z,100.00
2023-01-19T07:38:53.986Z,100.00
2023-01-19T07:41:02.067Z,99.79
2023-01-19T07:43:05.438Z,100.00
2023-01-19T07:45:09.979Z,99.53
2023-01-19T07:47:14.145Z,99.45
2023-01-19T07:49:17.676Z,99.08
2023-01-19T07:51:20.989Z,99.15
2023-01-19T07:53:25.769Z,99.28
2023-01-19T07:55:29.419Z,99.35
2023-01-19T07:57:32.785Z,99.20
2023-01-19T07:59:36.126Z,99.13
2023-01-19T08:01:40.475Z,99.38
2023-01-19T08:03:43.869Z,99.67
2023-01-19T08:05:51.563Z,99.62
2023-01-19T08:07:56.263Z,99.62
2023-01-19T08:10:00.974Z,99.16
2023-01-19T08:12:04.925Z,99.35
2023-01-19T08:14:08.693Z,98.94
2023-01-19T08:16:12.075Z,99.15
2023-01-19T08:18:15.660Z,98.84
2023-01-19T08:20:19.121Z,99.00
2023-01-19T08:22:22.503Z,99.08
2023-01-19T08:24:28.541Z,98.83
2023-01-19T08:26:35.272Z,97.93
2023-01-19T08:28:38.702Z,98.30
2023-01-19T08:30:44.509Z,97.82
2023-01-19T08:32:47.907Z,97.14
2023-01-19T08:34:51.314Z,97.38
2023-01-19T08:36:54.758Z,98.73
2023-01-19T08:38:58.161Z,98.09
2023-01-19T08:41:01.476Z,98.12
2023-01-19T08:43:08.227Z,97.64
2023-01-19T08:45:12.130Z,97.38
2023-01-19T08:47:17.175Z,96.96
2023-01-19T08:49:20.636Z,96.15
2023-01-19T08:51:24.110Z,96.29
2023-01-19T08:53:27.464Z,95.70
2023-01-19T08:55:31.477Z,95.96
2023-01-19T08:57:34.796Z,95.95
2023-01-19T08:59:39.527Z,96.33
2023-01-19T09:01:42.993Z,97.28
2023-01-19T09:03:46.806Z,97.24
2023-01-19T09:05:50.912Z,98.01
2023-01-19T09:07:54.241Z,97.10
2023-01-19T09:09:57.824Z,97.14
2023-01-19T09:12:01.125Z,97.03
2023-01-19T09:14:05.612Z,96.75
2023-01-19T09:16:12.611Z,97.65
2023-01-19T09:18:19.821Z,97.56
2023-01-19T09:20:23.455Z,97.56
2023-01-19T09:22:26.812Z,97.56
2023-01-19T09:24:30.098Z,97.76
2023-01-19T09:26:33.390Z,97.72
2023-01-19T09:28:38.148Z,97.45
2023-01-19T09:30:42.977Z,97.19
2023-01-19T09:32:47.617Z,96.71
2023-01-19T09:34:51.150Z,96.90
2023-01-19T09:36:54.648Z,96.36
2023-01-19T09:38:57.996Z,96.97
2023-01-19T09:41:02.140Z,96.74
2023-01-19T09:43:14.620Z,96.42
2023-01-19T09:45:23.838Z,96.90
2023-01-19T09:47:30.721Z,96.53
2023-01-19T09:49:42.203Z,96.69
2023-01-19T09:51:48.143Z,96.58
2023-01-19T09:53:57.332Z,96.32
2023-01-19T09:56:01.013Z,95.59
2023-01-19T09:58:10.865Z,95.87
2023-01-19T10:00:16.403Z,94.98
2023-01-19T10:02:29.255Z,95.88
2023-01-19T10:04:39.820Z,96.24
2023-01-19T10:06:43.433Z,96.55
2023-01-19T10:09:00.033Z,97.45
2023-01-19T10:11:03.397Z,97.26
2023-01-19T10:13:26.590Z,96.69
2023-01-19T10:15:40.586Z,96.91
2023-01-19T10:17:53.583Z,97.63
2023-01-19T10:19:59.531Z,97.27
2023-01-19T10:22:13.141Z,96.31
2023-01-19T10:24:22.339Z,96.87
2023-01-19T10:26:27.058Z,96.64
2023-01-19T10:28:31.082Z,96.51
2023-01-19T10:30:36.070Z,97.26
2023-01-19T10:32:40.193Z,97.34
2023-01-19T10:34:43.972Z,97.56
2023-01-19T10:36:52.762Z,97.17
2023-01-19T10:38:56.171Z,96.27
2023-01-19T10:41:04.968Z,96.72
2023-01-19T10:43:38.080Z,97.00
2023-01-19T10:45:41.595Z,96.67
2023-01-19T10:47:47.057Z,96.43
2023-01-19T10:49:50.653Z,96.34
2023-01-19T10:51:56.502Z,95.75
2023-01-19T10:54:02.404Z,95.88
2023-01-19T10:56:17.677Z,96.23
2023-01-19T10:58:30.100Z,96.44
2023-01-19T11:00:37.572Z,96.32
2023-01-19T11:02:51.360Z,95.47
2023-01-19T11:04:56.888Z,95.89
2023-01-19T11:07:15.563Z,96.04
2023-01-19T11:09:20.630Z,94.84
2023-01-19T11:11:25.367Z,95.95
2023-01-19T11:13:28.983Z,94.67
2023-01-19T11:15:35.729Z,94.99
2023-01-19T11:17:48.157Z,95.16
2023-01-19T11:19:57.461Z,95.31
2023-01-19T11:22:21.609Z,94.50
2023-01-19T11:24:25.165Z,94.24
2023-01-19T11:26:31.264Z,93.79
2023-01-19T11:28:37.435Z,94.34
2023-01-19T11:30:55.555Z,94.00
2023-01-19T11:33:00.715Z,94.59
2023-01-19T11:35:19.449Z,93.95
2023-01-19T11:37:34.461Z,93.76
2023-01-19T11:39:48.962Z,94.39
2023-01-19T11:41:56.200Z,93.70
2023-01-19T11:44:03.831Z,94.36
2023-01-19T11:46:07.324Z,93.48
2023-01-19T11:48:21.687Z,93.31
2023-01-19T11:50:30.247Z,94.13
2023-01-19T11:52:42.899Z,93.48
2023-01-19T11:54:50.569Z,94.09
2023-01-19T11:56:56.637Z,94.45
2023-01-19T11:58:59.959Z,93.55
2023-01-19T12:01:08.174Z,93.93
2023-01-19T12:03:19.168Z,93.84
2023-01-19T12:05:24.504Z,94.39
2023-01-19T12:07:32.039Z,94.34
2023-01-19T12:09:42.844Z,95.21
2023-01-19T12:11:51.894Z,94.49
2023-01-19T12:13:55.644Z,94.95
2023-01-19T12:16:02.349Z,94.29
2023-01-19T12:18:08.529Z,94.23
2023-01-19T12:20:25.759Z,94.73
2023-01-19T12:22:36.592Z,95.19
2023-01-19T12:24:47.384Z,94.49
2023-01-19T12:26:54.984Z,94.86
2023-01-19T12:29:04.184Z,93.68
2023-01-19T12:31:08.326Z,93.96
2023-01-19T12:33:37.446Z,93.00
2023-01-19T12:35:59.504Z,92.90
2023-01-19T12:38:22.975Z,93.43
2023-01-19T12:40:31.259Z,93.69
2023-01-19T12:42:35.125Z,92.92
2023-01-19T12:44:38.652Z,93.15
2023-01-19T12:46:43.618Z,92.74
2023-01-19T12:48:47.092Z,93.35
2023-01-19T12:50:50.555Z,93.41
2023-01-19T12:52:57.385Z,93.33
2023-01-19T12:55:07.474Z,92.82
2023-01-19T12:57:22.061Z,92.60
2023-01-19T12:59:27.422Z,92.17
2023-01-19T13:01:31.179Z,92.26
2023-01-19T13:03:59.260Z,92.57
2023-01-19T13:06:02.635Z,91.99
2023-01-19T13:08:25.716Z,91.53
2023-01-19T13:11:22.488Z,90.93
2023-01-19T13:13:29.895Z,91.53
2023-01-19T13:15:36.497Z,90.52
2023-01-19T13:17:50.836Z,91.71
2023-01-19T13:20:02.987Z,91.15
2023-01-19T13:22:43.730Z,90.97
2023-01-19T13:25:06.906Z,90.98
2023-01-19T13:27:14.065Z,90.31
2023-01-19T13:29:26.070Z,90.18
2023-01-19T13:31:35.723Z,90.26
2023-01-19T13:33:46.375Z,90.24
2023-01-19T13:35:55.549Z,89.45
2023-01-19T13:38:01.548Z,90.58
2023-01-19T13:40:05.987Z,89.91
2023-01-19T13:42:16.612Z,89.63
2023-01-19T13:44:24.877Z,89.86
2023-01-19T13:46:29.762Z,90.83
2023-01-19T13:48:33.962Z,90.31
2023-01-19T13:50:38.629Z,90.95
2023-01-19T13:52:44.553Z,91.14
2023-01-19T13:54:53.210Z,91.00
2023-01-19T13:56:56.747Z,91.25
2023-01-19T13:59:11.678Z,91.18
2023-01-19T14:01:24.954Z,90.72
2023-01-19T14:03:29.639Z,91.80
2023-01-19T14:05:34.787Z,91.19
2023-01-19T14:07:38.105Z,92.11
2023-01-19T14:09:41.499Z,91.44
2023-01-19T14:11:47.032Z,91.15
2023-01-19T14:13:50.927Z,90.53
2023-01-19T14:15:57.319Z,90.14
2023-01-19T14:18:27.698Z,90.49
2023-01-19T14:20:36.690Z,90.20
2023-01-19T14:22:42.366Z,89.62
2023-01-19T14:24:45.773Z,89.46
2023-01-19T14:26:51.244Z,89.58
2023-01-19T14:28:55.528Z,89.62
2023-01-19T14:31:00.740Z,89.28
2023-01-19T14:33:04.282Z,89.99
2023-01-19T14:35:24.983Z,89.76
2023-01-19T14:37:30.403Z,88.53
2023-01-19T14:39:36.151Z,89.06
2023-01-19T14:41:47.894Z,88.80
2023-01-19T14:43:51.493Z,88.90
2023-01-19T14:45:55.766Z,88.97
2023-01-19T14:48:02.119Z,89.12
2023-01-19T14:50:22.213Z,88.88
2023-01-19T14:52:29.525Z,88.76
2023-01-19T14:54:36.832Z,89.20
2023-01-19T14:56:40.160Z,90.12
2023-01-19T14:58:43.443Z,90.75
2023-01-19T15:00:48.066Z,90.47
2023-01-19T15:02:51.474Z,91.23
2023-01-19T15:04:55.393Z,90.88
2023-01-19T15:07:00.212Z,91.98
2023-01-19T15:09:04.165Z,91.68
2023-01-19T15:11:11.904Z,91.72
2023-01-19T15:13:19.933Z,91.91
2023-01-19T15:15:31.155Z,92.02
2023-01-19T15:17:35.164Z,91.78
2023-01-19T15:19:38.498Z,91.51
2023-01-19T15:21:42.341Z,91.81
2023-01-19T15:23:48.458Z,91.95
2023-01-19T15:25:53.378Z,91.75
2023-01-19T15:27:59.664Z,91.97
2023-01-19T15:30:02.979Z,91.61
2023-01-19T15:32:07.285Z,91.44
2023-01-19T15:34:13.185Z,91.80
2023-01-19T15:36:19.119Z,92.08
2023-01-19T15:38:22.441Z,92.03
2023-01-19T15:40:27.373Z,91.41
2023-01-19T15:42:30.711Z,91.19
2023-01-19T15:44:34.103Z,91.38
2023-01-19T15:46:38.217Z,91.64
2023-01-19T15:48:41.665Z,91.21
2023-01-19T15:50:46.033Z,91.19
2023-01-19T15:52:49.454Z,91.74
2023-01-19T15:54:52.778Z,91.22
2023-01-19T15:56:57.470Z,91.03
2023-01-19T15:59:02.505Z,91.07
2023-01-19T16:01:06.150Z,90.60
2023-01-19T16:03:09.580Z,90.97
2023-01-19T16:05:13.326Z,90.88
2023-01-19T16:07:16.811Z,90.54
2023-01-19T16:09:20.217Z,90.39
2023-01-19T16:11:23.616Z,90.63
2023-01-19T16:13:29.961Z,90.77
2023-01-19T16:15:35.926Z,90.43
2023-01-19T16:17:39.264Z,90.77
2023-01-19T16:19:42.590Z,90.61
2023-01-19T16:21:45.996Z,90.36
2023-01-19T16:23:49.380Z,89.93
2023-01-19T16:26:00.801Z,90.16
2023-01-19T16:28:04.137Z,89.79
2023-01-19T16:30:12.419Z,90.40
2023-01-19T16:32:17.024Z,90.63
2023-01-19T16:34:20.373Z,89.81
2023-01-19T16:36:27.795Z,89.49
2023-01-19T16:38:31.128Z,90.08
2023-01-19T16:40:34.477Z,89.36
2023-01-19T16:42:39.090Z,89.06
2023-01-19T16:44:42.392Z,90.15
2023-01-19T16:46:49.650Z,89.73
2023-01-19T16:48:53.729Z,88.73
2023-01-19T16:51:02.363Z,89.43
2023-01-19T16:53:05.705Z,89.92
2023-01-19T16:55:11.219Z,89.23
2023-01-19T16:57:14.939Z,89.67
2023-01-19T16:59:19.318Z,89.09
2023-01-19T17:01:23.581Z,89.09
2023-01-19T17:03:28.348Z,88.66
2023-01-19T17:05:31.768Z,88.69
2023-01-19T17:07:35.115Z,89.07
2023-01-19T17:09:38.656Z,89.07
2023-01-19T17:11:42.318Z,89.13
2023-01-19T17:13:45.732Z,89.08
2023-01-19T17:15:49.199Z,89.54
2023-01-19T17:17:52.559Z,89.18
2023-01-19T17:19:57.607Z,89.07
2023-01-19T17:22:00.919Z,89.75
2023-01-19T17:24:05.173Z,89.00
2023-01-19T17:26:08.694Z,88.96
2023-01-19T17:28:12.142Z,89.44
2023-01-19T17:30:15.938Z,89.57
2023-01-19T17:32:19.350Z,89.59
2023-01-19T17:34:22.688Z,88.81
2023-01-19T17:36:29.076Z,89.73
2023-01-19T17:38:32.388Z,89.46
2023-01-19T17:40:35.792Z,89.28
2023-01-19T17:42:40.940Z,89.63
2023-01-19T17:44:44.204Z,89.60
2023-01-19T17:46:48.530Z,90.21
2023-01-19T17:48:53.201Z,90.04
2023-01-19T17:51:02.696Z,89.87
2023-01-19T17:53:07.498Z,90.21
2023-01-19T17:55:11.408Z,89.52
2023-01-19T17:57:14.871Z,89.82
2023-01-19T17:59:18.187Z,89.89
2023-01-19T18:01:24.005Z,89.69
2023-01-19T18:03:27.313Z,90.19
2023-01-19T18:05:30.632Z,89.17
2023-01-19T18:07:33.974Z,89.54
2023-01-19T18:09:38.679Z,89.18
2023-01-19T18:11:42.728Z,89.71
2023-01-19T18:13:48.058Z,88.27
2023-01-19T18:15:51.700Z,87.87
2023-01-19T18:17:55.070Z,88.66
2023-01-19T18:19:58.494Z,88.41
2023-01-19T18:22:02.306Z,88.95
2023-01-19T18:24:07.005Z,88.52
2023-01-19T18:26:14.862Z,88.17
2023-01-19T18:28:18.204Z,88.08
2023-01-19T18:30:22.392Z,87.88
2023-01-19T18:32:27.190Z,88.05
2023-01-19T18:34:30.593Z,87.30
2023-01-19T18:36:34.240Z,86.75
2023-01-19T18:38:38.874Z,87.56
2023-01-19T18:40:42.200Z,86.62
2023-01-19T18:42:47.045Z,87.11
2023-01-19T18:44:50.337Z,87.36
2023-01-19T18:46:56.660Z,86.31
2023-01-19T18:49:00.243Z,85.97
2023-01-19T18:51:07.188Z,85.89
2023-01-19T18:53:10.593Z,86.42
2023-01-19T18:55:14.026Z,85.37
2023-01-19T18:57:17.794Z,85.48
2023-01-19T18:59:22.641Z,85.75
2023-01-19T19:01:27.592Z,85.73
2023-01-19T19:03:31.130Z,84.62
2023-01-19T19:05:34.520Z,84.78
2023-01-19T19:07:38.488Z,85.65
2023-01-19T19:09:41.906Z,85.62
2023-01-19T19:11:45.200Z,86.00
2023-01-19T19:13:53.202Z,85.54
2023-01-19T19:16:03.807Z,85.82
2023-01-19T19:18:08.888Z,85.74
2023-01-19T19:20:13.520Z,85.77
2023-01-19T19:22:17.129Z,85.80
2023-01-19T19:24:20.629Z,85.48
2023-01-19T19:26:25.119Z,85.50
2023-01-19T19:28:28.394Z,85.81
2023-01-19T19:30:34.267Z,86.42
2023-01-19T19:32:39.337Z,85.51
2023-01-19T19:34:42.988Z,86.22
2023-01-19T19:36:46.367Z,86.55
2023-01-19T19:38:50.548Z,85.66
2023-01-19T19:40:54.507Z,85.45
2023-01-19T19:42:58.902Z,85.89
2023-01-19T19:45:02.434Z,86.02
2023-01-19T19:47:06.006Z,85.14
2023-01-19T19:49:10.853Z,85.45
2023-01-19T19:51:19.085Z,86.42
2023-01-19T19:53:23.723Z,85.86
2023-01-19T19:55:27.072Z,85.58
2023-01-19T19:57:30.444Z,85.63
2023-01-19T19:59:33.925Z,85.80
2023-01-19T20:01:37.445Z,85.16
2023-01-19T20:03:41.120Z,85.45
2023-01-19T20:05:46.127Z,85.62
2023-01-19T20:07:49.489Z,86.35
2023-01-19T20:09:53.505Z,85.87
2023-01-19T20:11:57.002Z,85.55
2023-01-19T20:14:01.652Z,86.18
2023-01-19T20:16:07.289Z,85.95
2023-01-19T20:18:10.737Z,85.90
2023-01-19T20:20:14.603Z,85.98
2023-01-19T20:22:19.474Z,86.29
2023-01-19T20:24:22.786Z,86.44
2023-01-19T20:26:28.486Z,86.12
2023-01-19T20:28:31.946Z,86.25
2023-01-19T20:30:35.367Z,86.14
2023-01-19T20:32:40.314Z,85.94
2023-01-19T20:34:43.807Z,85.51
2023-01-19T20:36:49.784Z,86.37
2023-01-19T20:38:55.653Z,85.75
2023-01-19T20:40:59.276Z,85.45
2023-01-19T20:43:02.656Z,85.62
2023-01-19T20:45:06.570Z,85.51
2023-01-19T20:47:10.881Z,85.80
2023-01-19T20:49:14.430Z,85.29
2023-01-19T20:51:18.759Z,85.46
2023-01-19T20:53:22.339Z,85.84
2023-01-19T20:55:27.081Z,85.85
2023-01-19T20:57:30.487Z,84.92
2023-01-19T20:59:36.804Z,85.71
2023-01-19T21:01:41.040Z,85.63
2023-01-19T21:03:44.720Z,84.87
2023-01-19T21:05:48.368Z,84.87
2023-01-19T21:07:51.898Z,85.34
2023-01-19T21:09:55.307Z,85.58
2023-01-19T21:12:00.110Z,85.72
2023-01-19T21:14:03.508Z,85.36
2023-01-19T21:16:07.816Z,85.66
2023-01-19T21:18:11.284Z,85.26
2023-01-19T21:20:15.121Z,85.49
2023-01-19T21:22:18.510Z,84.89
2023-01-19T21:24:21.893Z,86.91
2023-01-19T21:26:25.251Z,92.30
2023-01-19T21:28:29.927Z,88.66
2023-01-19T21:30:33.430Z,87.75
2023-01-19T21:32:36.955Z,87.94
2023-01-19T21:34:40.514Z,87.45
2023-01-19T21:36:44.618Z,87.73
2023-01-19T21:38:48.129Z,87.94
2023-01-19T21:40:51.604Z,86.92
2023-01-19T21:42:55.054Z,87.38
2023-01-19T21:44:59.740Z,86.89
2023-01-19T21:47:03.040Z,87.35
2023-01-19T21:49:08.611Z,86.68
2023-01-19T21:51:11.931Z,86.16
2023-01-19T21:53:15.526Z,86.83
2023-01-19T21:55:19.009Z,86.78
2023-01-19T21:57:22.337Z,86.62
2023-01-19T21:59:25.977Z,86.46
2023-01-19T22:01:31.412Z,87.05
2023-01-19T22:03:34.804Z,87.12
2023-01-19T22:05:38.281Z,86.33
2023-01-19T22:07:41.576Z,86.90
2023-01-19T22:09:44.841Z,86.98
2023-01-19T22:11:48.162Z,86.95
2023-01-19T22:13:51.849Z,86.80
2023-01-19T22:16:00.673Z,86.68
2023-01-19T22:18:05.385Z,87.11
2023-01-19T22:20:10.317Z,87.15
2023-01-19T22:22:14.877Z,86.71
2023-01-19T22:24:18.244Z,87.04
2023-01-19T22:26:22.190Z,87.22
2023-01-19T22:28:25.456Z,86.96
2023-01-19T22:30:28.946Z,86.90
2023-01-19T22:32:32.752Z,87.47
2023-01-19T22:34:37.547Z,87.39
2023-01-19T22:36:40.953Z,87.09
2023-01-19T22:38:45.514Z,87.08
2023-01-19T22:40:48.928Z,86.78
2023-01-19T22:42:52.274Z,87.26
2023-01-19T22:44:55.550Z,87.16
2023-01-19T22:46:58.844Z,87.07
2023-01-19T22:49:02.800Z,86.86
2023-01-19T22:51:07.660Z,87.11
2023-01-19T22:53:10.948Z,87.03
2023-01-19T22:55:14.496Z,87.40
2023-01-19T22:57:18.057Z,87.62
2023-01-19T22:59:21.398Z,87.59
2023-01-19T23:01:26.658Z,87.11
2023-01-19T23:03:30.359Z,87.14
2023-01-19T23:05:36.638Z,87.82
2023-01-19T23:07:41.310Z,87.33
2023-01-19T23:09:45.449Z,86.79
2023-01-19T23:11:50.623Z,87.02
2023-01-19T23:13:54.393Z,87.52
2023-01-19T23:15:58.705Z,87.46
2023-01-19T23:18:02.151Z,87.41
2023-01-19T23:20:06.566Z,87.58
2023-01-19T23:22:09.883Z,87.02
2023-01-19T23:24:14.562Z,87.55
2023-01-19T23:26:19.714Z,86.90
2023-01-19T23:28:22.992Z,87.64
2023-01-19T23:30:26.390Z,87.48
2023-01-19T23:32:29.761Z,87.03
2023-01-19T23:34:33.045Z,87.36
2023-01-19T23:36:38.565Z,87.21
2023-01-19T23:38:42.619Z,87.05
2023-01-19T23:40:47.342Z,86.52
2023-01-19T23:42:50.648Z,87.92
2023-01-19T23:44:53.992Z,86.98
2023-01-19T23:46:58.044Z,87.07
2023-01-19T23:49:01.721Z,87.02
2023-01-19T23:51:07.359Z,87.27
2023-01-19T23:53:10.661Z,87.25
2023-01-19T23:55:14.295Z,87.43
2023-01-19T23:57:19.088Z,87.17
2023-01-19T23:59:22.379Z,87.32
